Airfield :
LOGIN :

Register | Disclaimer

   EN    FR    IT 

 










Legend :    VFR   Marginal VFR   IFR   Intensive IFR   Very Intensive IFR
Visi :
Ceiling :
>= 8 km
>= 3000ft
5 to 8 km
1000 to 3000 ft
1500m to 5 km
500 to 1000 ft
800 to 1500m
200 to 500 ft
< 800m
< 200 ft
Symbols :   Thunderstorms  Fog  Heavy snow  Heavy precipitations  Wind > 20 kt
SIGMETs :     Misc.  Thunderstorms  Icing  Turbulence  Mountain Waves  Volcanic Ashes







- Airport Elevation : 1187 ft


LIBV - Gioia del Colle Bari

CURRENT METAR :
  • 292355Z 30004KT CAVOK 07/02 Q1020 RMK SKC VIS MIN 9999 WIND THR32 34006KT WIND THR14 29003KT BLU

EXPIRED METARs :
  • 292255Z 32003KT CAVOK 08/02 Q1020 RMK SKC VIS MIN 9999 WIND THR32 36004KT WIND THR14 32005KT BLU
  • 292155Z 32005KT CAVOK 08/03 Q1020 RMK SKC VIS MIN 9999 WIND THR32 36006KT WIND THR14 33006KT BLU

TAF TAF LIBV
Valid from the 30 at 00:00 until the 30 at 09:00 UTC


292300Z 3000/3009 34005KT CAVOK
TEMPO 3000/3006 6000 NSC
BECMG 3006/3009 34015KT
No reported NOTAMs for that airfield.



MET'MAP, your aeronautical weather chart ! - Copyright ORBIFLY December 2007 - Disclaimer

ORBIFLY MET'MAP TEAM :

Programming & Development : Alexandra Zaïnal
Concept & Development : Baudouin d'Aumeries
Co-Development & Prog : Marc-Olivier Méhu
Technical & hardware support : Manuel Goepfert

Contact : metmap@orbifly.com




SOURCES & CREDITS :

   NOAA